General Mitchell International Airport
KMKE : now visible

Airfield :











YOU CAN JOIN US ON...

 
LOGIN :

Register | Disclaimer

   EN    FR    IT 

 









Legend :    VFR   Marginal VFR   IFR   Intensive IFR   Very Intensive IFR
Visi :
Ceiling :
>= 8 km
>= 3000ft
5 to 8 km
1000 to 3000 ft
1500m to 5 km
500 to 1000 ft
800 to 1500m
200 to 500 ft
< 800m
< 200 ft
Symbols :   Thunderstorms  Fog  Heavy snow  Heavy precipitations  Wind > 20 kt






- Airport Elevation : 723 ft
- IATA code : MKE


KMKE - General Mitchell International

CURRENT METAR :
  • 181652Z 27013G19KT 3SM -SN SCT013 SCT020 OVC055 02/M01 A2961 RMK AO2 SFC VIS 9 SLP033 P0000 T00171011 $

EXPIRED METARs :
  • 181632Z 26011G19KT 3SM -SN BR SCT009 BKN047 OVC055 02/M01 A2961 RMK AO2 SFC VIS 4 P0000 T00171006 $
  • 181552Z 24007KT 1/2SM R01L/3500VP6000FT -SN BR FEW005 SCT010 OVC017 01/M01 A2961 RMK AO2 SFC VIS 1 SLP034 P0003 T00111006 $
  • 181452Z 20006KT 1/2SM R01L/P6000FT -SN BR BKN005 OVC014 01/00 A2962 RMK AO2 SFC VIS 2 1/2 SNB02GSE17 SLP038 P0003 60004 I3000 T00110000 56035 $
  • 181434Z 21005KT 1/2SM R01L/2800VP6000FT SN FG OVC006 01/00 A2962 RMK AO2 SNB02GSE17 P0002 T00110000 $
  • 181423Z 21006KT 2SM R01L/6000VP6000FT -SN BR OVC006 01/00 A2963 RMK AO2 SNB02GSE17 P0001 T00110000 $

TAF KMKE
Valid from the 18 at 17:00 until the 19 at 18:00 UTC


181654Z 1817/1918 19007KT 4SM -SN SCT009 OVC020
TEMPO 1817/1819 2SM -SN BKN010
FM181900 27019G29KT 6SM BLSN OVC010
FM190100 28025G35KT 6SM BLSN OVC020
FM191100 29020G30KT P6SM BKN035



MET'MAP, your aeronautical weather chart ! - Copyright ORBIFLY December 2007 - Disclaimer

ORBIFLY MET'MAP TEAM :

Programming & Development : Alexandra Zaïnal
Concept & original design : Baudouin d'Aumeries
Assistance for programming : Marc-Olivier Méhu
Technical & hardware support : Manuel Goepfert

Contact : metmap@orbifly.com




SOURCES & CREDITS :

   NOAA       Earth
Advisory